Time;durP1;ratioP1;P1;durP2;ratioP2;P2;SDS_P1;SDS_P2;PMS_P1;PMS_P2;Temp;Humidity;BMP_temperature;BMP_pressure;BME280_temperature;BME280_humidity;BME280_pressure;Samples;Min_cycle;Max_cycle;Signal;HPM_P1;HPM_P2
2021/03/12 05:50:36;;;;;;;22.47;10.63;;;;;;;-1.41;84.21;97998.48;1700142;81;21172;-58
2021/03/12 05:53:06;;;;;;;25.15;11.33;;;;;;;-1.37;84.46;97999.00;1706305;82;21118;-57
2021/03/12 05:55:37;;;;;;;22.77;11.83;;;;;;;-1.34;84.43;98013.71;1670645;84;21186;-59
2021/03/12 05:58:07;;;;;;;23.57;13.43;;;;;;;-1.29;84.08;98016.33;1702740;84;21169;-58
2021/03/12 06:00:36;;;;;;;23.10;11.00;;;;;;;-1.26;84.28;98014.26;1700358;84;21787;-59
2021/03/12 06:03:07;;;;;;;26.73;10.45;;;;;;;-1.24;84.15;97992.92;1663853;84;21228;-58
2021/03/12 06:05:51;;;;;;;27.17;12.40;;;;;;;-1.25;84.32;97988.72;1806815;78;23159;-58
2021/03/12 06:08:19;;;;;;;30.67;16.00;;;;;;;-1.32;84.73;97999.33;1773164;79;21145;-60
2021/03/12 06:10:52;;;;;;;22.93;11.63;;;;;;;-1.34;85.25;97992.22;1792736;79;21149;-55
2021/03/12 06:13:25;;;;;;;24.63;11.70;;;;;;;-1.31;85.56;98006.63;1772374;79;21203;-54
2021/03/12 06:15:59;;;;;;;26.20;12.97;;;;;;;-1.30;86.08;98003.08;1772248;80;21142;-57
2021/03/12 06:18:28;;;;;;;31.83;15.03;;;;;;;-1.30;86.92;97999.20;1767251;79;21176;-53
2021/03/12 06:21:06;;;;;;;24.43;12.10;;;;;;;-1.31;87.30;98000.17;1766227;79;21148;-59
2021/03/12 06:24:00;;;;;;;26.87;13.03;;;;;;;-1.32;87.75;97992.05;1676768;81;21193;-61
2021/03/12 06:26:45;;;;;;;30.13;16.03;;;;;;;-1.38;88.63;97987.02;1733323;83;21208;-63
2021/03/12 06:59:06;;;;;;;29.40;15.77;;;;;;;-1.22;92.47;97986.30;1715054;78;21336;-53
2021/03/12 07:01:39;;;;;;;25.17;13.90;;;;;;;-1.19;92.39;97982.13;1700613;83;21617;-58
2021/03/12 07:04:18;;;;;;;30.73;15.43;;;;;;;-1.23;92.56;97970.45;1675713;85;21174;-67
2021/03/12 07:07:01;;;;;;;30.73;15.53;;;;;;;-1.24;92.99;97952.03;1673698;84;21190;-58
2021/03/12 07:09:33;;;;;;;28.90;15.73;;;;;;;-1.26;93.28;97954.78;1711678;82;21175;-64
2021/03/12 07:12:19;;;;;;;27.67;15.17;;;;;;;-1.24;94.15;97959.31;1697226;83;21202;-71
2021/03/12 07:14:53;;;;;;;28.00;13.70;;;;;;;-1.21;94.54;97964.16;1688235;84;21149;-68
2021/03/12 07:17:25;;;;;;;24.80;13.83;;;;;;;-1.19;94.74;97958.84;1685881;85;21218;-60
2021/03/12 07:20:00;;;;;;;25.27;13.23;;;;;;;-1.16;95.47;97948.17;1705070;83;21177;-60
2021/03/12 07:22:30;;;;;;;31.37;13.63;;;;;;;-1.12;95.30;97952.89;1692182;84;21339;-62
2021/03/12 07:25:05;;;;;;;24.37;13.63;;;;;;;-1.07;95.45;97944.67;1689377;84;21347;-61
2021/03/12 07:27:43;;;;;;;27.20;15.03;;;;;;;-1.04;95.47;97937.88;1692723;84;21196;-63
2021/03/12 07:30:20;;;;;;;27.13;15.00;;;;;;;-0.99;95.71;97942.59;1696367;83;21179;-67
2021/03/12 07:32:54;;;;;;;24.47;12.93;;;;;;;-0.89;95.97;97938.91;1643957;85;21711;-63
2021/03/12 07:35:29;;;;;;;26.73;14.73;;;;;;;-0.81;95.56;97919.50;1631687;86;21163;-63
2021/03/12 07:38:08;;;;;;;25.60;13.57;;;;;;;-0.77;95.42;97914.83;1647054;85;21325;-66
2021/03/12 07:40:41;;;;;;;25.97;12.70;;;;;;;-0.75;95.05;97916.77;1708443;83;22237;-71
2021/03/12 07:43:22;;;;;;;28.73;15.73;;;;;;;-0.74;94.63;97923.59;1693700;83;21153;-69
2021/03/12 07:46:04;;;;;;;34.53;18.83;;;;;;;-0.69;94.99;97928.27;1700415;83;21146;-64
2021/03/12 07:48:37;;;;;;;35.27;18.33;;;;;;;-0.68;94.91;97916.48;1691018;82;21166;-60
2021/03/12 07:51:16;;;;;;;27.07;15.20;;;;;;;-0.65;95.08;97913.55;1630783;87;21758;-61
2021/03/12 07:53:54;;;;;;;31.00;14.63;;;;;;;-0.63;94.97;97912.93;1672778;85;21162;-57
2021/03/12 07:56:49;;;;;;;29.87;16.33;;;;;;;-0.62;94.97;97914.55;1632220;87;21156;-57
2021/03/12 07:59:55;;;;;;;30.60;17.23;;;;;;;-0.56;95.08;97920.37;1918777;74;23465;-62
2021/03/12 08:03:00;;;;;;;27.10;14.37;;;;;;;-0.55;95.29;97932.34;1835893;75;21454;-58
2021/03/12 08:05:47;;;;;;;29.67;17.73;;;;;;;-0.52;95.12;97914.86;1861036;75;21156;-71
2021/03/12 08:08:38;;;;;;;31.37;16.90;;;;;;;-0.51;95.03;97922.98;1786980;78;21263;-58
2021/03/12 08:11:36;;;;;;;27.77;15.27;;;;;;;-0.44;94.78;97917.48;1827184;78;23442;-56
2021/03/12 08:14:19;;;;;;;30.72;16.00;;;;;;;-0.45;94.85;97919.75;1785159;79;21175;-59
2021/03/12 08:17:27;;;;;;;28.10;15.87;;;;;;;-0.34;95.05;97911.66;1777244;79;21171;-63
2021/03/12 08:20:43;;;;;;;30.35;15.85;;;;;;;-0.29;94.70;97915.84;1775856;80;21142;-58
2021/03/12 08:23:48;;;;;;;27.73;15.67;;;;;;;-0.28;94.36;97922.67;1684101;81;21208;-60
2021/03/12 08:26:55;;;;;;;28.43;16.90;;;;;;;-0.27;94.77;97916.02;1748025;79;21142;-65
2021/03/12 08:30:14;;;;;;;27.03;15.23;;;;;;;-0.18;95.07;97916.02;1788567;79;21147;-61
2021/03/12 08:32:47;;;;;;;29.60;16.70;;;;;;;-0.13;94.52;97910.66;1723845;81;21208;-50
2021/03/12 08:35:38;;;;;;;28.67;16.97;;;;;;;-0.08;94.58;97907.59;1776394;79;21174;-58
2021/03/12 08:38:28;;;;;;;31.97;18.37;;;;;;;-0.03;94.11;97898.84;1746784;80;21178;-59
2021/03/12 08:41:22;;;;;;;32.80;17.97;;;;;;;-0.02;94.61;97897.87;1723986;83;21161;-56
2021/03/12 08:44:13;;;;;;;30.23;18.97;;;;;;;0.10;94.81;97897.84;1707826;83;21299;-58
2021/03/12 08:47:04;;;;;;;33.57;19.90;;;;;;;0.17;94.24;97896.70;1757892;81;21211;-59
2021/03/12 08:49:38;;;;;;;31.97;19.60;;;;;;;0.18;93.76;97908.71;1757666;81;21160;-56
2021/03/12 08:52:16;;;;;;;36.33;20.47;;;;;;;0.17;93.42;97910.95;1692899;82;21147;-66
2021/03/12 08:54:51;;;;;;;33.97;19.57;;;;;;;0.17;93.29;97897.53;1732909;82;21629;-63
2021/03/12 08:57:23;;;;;;;34.03;20.30;;;;;;;0.15;93.61;97899.95;1693905;83;21198;-62
2021/03/12 09:00:07;;;;;;;33.27;20.73;;;;;;;0.16;93.61;97912.73;1704359;84;21170;-61
2021/03/12 09:03:41;;;;;;;;;;;;;;;;;;;;;
2021/03/12 09:06:12;;;;;;;34.50;21.13;;;;;;;0.27;94.35;97901.22;1677421;85;21320;-57
2021/03/12 09:08:56;;;;;;;34.67;20.40;;;;;;;0.41;94.05;97907.04;1677915;85;21118;-60
2021/03/12 09:11:46;;;;;;;34.77;22.10;;;;;;;0.53;93.65;97904.41;1688469;85;21613;-62
2021/03/12 09:14:16;;;;;;;34.33;20.43;;;;;;;0.63;93.21;97911.16;1669922;85;21599;-54
2021/03/12 09:16:48;;;;;;;33.77;19.90;;;;;;;0.65;92.82;97912.63;1669083;84;21200;-60
2021/03/12 09:19:19;;;;;;;38.37;22.37;;;;;;;0.66;92.20;97915.54;1704272;81;21145;-57
2021/03/12 09:21:56;;;;;;;36.27;22.03;;;;;;;0.67;92.01;97912.45;1731081;81;21184;-60
2021/03/12 09:24:31;;;;;;;34.60;20.17;;;;;;;0.72;92.47;97916.66;1731003;83;22345;-58
2021/03/12 09:27:02;;;;;;;36.70;20.92;;;;;;;0.81;92.12;97907.07;1704669;83;21770;-57
2021/03/12 09:29:42;;;;;;;33.67;19.77;;;;;;;0.84;91.86;97916.60;1730148;83;21167;-58
2021/03/12 09:32:13;;;;;;;31.75;19.87;;;;;;;0.90;92.04;97917.72;1728413;81;21141;-66
2021/03/12 09:34:44;;;;;;;31.80;18.70;;;;;;;0.90;91.53;97917.22;1725342;81;21144;-56
2021/03/12 09:37:16;;;;;;;33.63;20.10;;;;;;;0.91;91.65;97915.43;1731318;81;21126;-55
2021/03/12 09:39:46;;;;;;;31.20;18.93;;;;;;;0.90;91.46;97915.12;1706792;83;21683;-62
2021/03/12 09:42:24;;;;;;;34.17;21.20;;;;;;;0.95;92.16;97902.45;1780310;79;23077;-58
2021/03/12 09:44:58;;;;;;;37.40;22.43;;;;;;;1.01;92.59;97909.55;1751613;82;21787;-58
2021/03/12 09:47:31;;;;;;;34.00;20.30;;;;;;;1.12;92.43;97909.17;1751532;82;21260;-63
2021/03/12 09:50:03;;;;;;;33.27;20.70;;;;;;;1.24;92.13;97909.09;1734247;81;21197;-56
2021/03/12 09:52:38;;;;;;;35.13;23.07;;;;;;;1.29;91.80;97915.89;1718715;83;21225;-62
2021/03/12 09:55:23;;;;;;;33.70;21.17;;;;;;;1.39;91.43;97905.78;1762076;79;23117;-56
2021/03/12 09:57:54;;;;;;;36.50;22.53;;;;;;;1.32;91.31;97909.56;1702697;83;21603;-61
2021/03/12 10:00:26;;;;;;;38.33;23.80;;;;;;;1.33;90.80;97913.27;1697093;83;21161;-59
2021/03/12 10:02:58;;;;;;;33.07;19.87;;;;;;;1.29;90.39;97921.57;1696145;84;21157;-57
2021/03/12 10:05:37;;;;;;;35.17;21.83;;;;;;;1.28;90.15;97906.48;1819310;79;23017;-65
2021/03/12 10:08:16;;;;;;;34.17;21.67;;;;;;;1.21;90.93;97909.95;1792449;80;21113;-56
2021/03/12 10:10:58;;;;;;;36.85;24.00;;;;;;;1.18;90.60;97903.79;1770098;80;21141;-59
2021/03/12 10:13:32;;;;;;;37.23;24.30;;;;;;;1.14;91.22;97899.41;1789228;80;21177;-59
2021/03/12 10:16:13;;;;;;;35.10;22.17;;;;;;;1.17;91.55;97893.89;1781371;79;21130;-62
2021/03/12 10:19:00;;;;;;;33.85;20.95;;;;;;;1.27;92.10;97883.30;1724953;82;21173;-62
2021/03/12 10:21:32;;;;;;;32.40;21.37;;;;;;;1.39;91.72;97880.62;1787060;80;21729;-59
2021/03/12 10:24:03;;;;;;;32.23;20.57;;;;;;;1.45;91.42;97873.92;1785091;80;21155;-60
2021/03/12 10:26:33;;;;;;;33.80;21.50;;;;;;;1.52;91.21;97869.15;1700279;84;21194;-59
2021/03/12 10:29:06;;;;;;;34.00;21.53;;;;;;;1.53;90.36;97872.55;1727913;83;21233;-59
2021/03/12 10:31:40;;;;;;;36.70;23.00;;;;;;;1.55;91.18;97868.02;1720480;83;21182;-62
2021/03/12 10:34:10;;;;;;;36.03;23.33;;;;;;;1.62;90.85;97854.63;1700148;82;21170;-60
2021/03/12 10:36:39;;;;;;;41.60;26.87;;;;;;;1.66;90.74;97862.86;1720073;82;21728;-66
2021/03/12 10:39:10;;;;;;;;;;;;;;;1.70;90.70;97861.05;1719711;83;21190;-65
2021/03/12 10:41:39;;;;;;;41.13;25.00;;;;;;;1.76;90.04;97859.05;1721401;83;20179;-56
2021/03/12 10:44:10;;;;;;;39.10;24.03;;;;;;;1.75;89.36;97861.33;1758036;81;21353;-64
2021/03/12 10:49:44;;;;;;;38.00;24.33;;;;;;;1.67;89.19;97847.62;1690574;83;21192;-69
2021/03/12 10:52:30;;;;;;;37.65;23.90;;;;;;;1.60;89.88;97849.59;1683551;84;21768;-60
2021/03/12 10:55:10;;;;;;;34.03;21.53;;;;;;;1.58;89.93;97848.97;1712356;83;21573;-59
2021/03/12 11:04:00;;;;;;;36.27;22.30;;;;;;;1.54;89.72;97844.29;1700018;79;21185;-59
2021/03/12 11:06:36;;;;;;;36.77;23.17;;;;;;;1.50;89.64;97840.45;1744635;81;21221;-57
2021/03/12 11:09:13;;;;;;;37.03;24.73;;;;;;;1.51;90.49;97835.08;1742080;82;21292;-59
2021/03/12 11:11:44;;;;;;;41.03;25.03;;;;;;;1.57;90.07;97833.56;1714963;82;21146;-60
2021/03/12 11:14:13;;;;;;;40.43;24.90;;;;;;;1.60;90.65;97843.09;1735685;82;21123;-65
2021/03/12 11:16:47;;;;;;;;;;;;;;;1.66;90.21;97836.88;1702314;83;21173;-60
2021/03/12 11:19:16;;;;;;;35.80;23.12;;;;;;;1.66;89.71;97837.69;1732509;81;20199;-63
2021/03/12 11:21:45;;;;;;;36.40;23.50;;;;;;;1.62;89.87;97830.45;1722031;83;21189;-61
2021/03/12 11:24:15;;;;;;;35.83;22.93;;;;;;;1.56;90.26;97831.95;1722248;81;21221;-64
2021/03/12 11:26:44;;;;;;;40.53;24.07;;;;;;;1.59;91.25;97834.99;1722463;81;21329;-61
2021/03/12 11:29:14;;;;;;;40.67;25.07;;;;;;;1.65;91.09;97825.69;1762118;81;21169;-64
2021/03/12 11:31:45;;;;;;;35.77;23.77;;;;;;;1.72;91.56;97827.92;1762224;81;21336;-66
2021/03/12 11:34:14;;;;;;;;;;;;;;;1.79;90.88;97818.92;1749804;81;21210;-63
2021/03/12 11:36:44;;;;;;;37.43;23.77;;;;;;;1.84;90.42;97833.00;1735698;82;20138;-64
2021/03/12 11:39:13;;;;;;;40.73;23.70;;;;;;;1.83;90.44;97826.66;1735888;83;22273;-62
2021/03/12 11:41:43;;;;;;;41.37;27.37;;;;;;;1.91;90.55;97826.59;1735745;83;21305;-61
2021/03/12 11:44:14;;;;;;;39.53;24.63;;;;;;;1.97;90.57;97832.38;1736056;83;21169;-62
2021/03/12 11:46:43;;;;;;;40.10;27.83;;;;;;;2.03;90.54;97829.56;1742942;82;21158;-61
2021/03/12 11:49:13;;;;;;;43.60;28.80;;;;;;;2.05;90.18;97823.19;1739867;81;21201;-66
2021/03/12 11:51:42;;;;;;;44.67;29.97;;;;;;;2.06;90.09;97816.20;1692813;84;21297;-66
2021/03/12 11:54:16;;;;;;;39.23;27.20;;;;;;;2.06;89.76;97813.59;1744790;82;21285;-61
2021/03/12 11:56:49;;;;;;;41.57;28.17;;;;;;;2.03;89.11;97820.47;1744486;82;21241;-60
2021/03/12 11:59:19;;;;;;;43.30;27.23;;;;;;;1.92;89.30;97818.30;1744405;82;21200;-66
2021/03/12 12:01:51;;;;;;;44.23;29.00;;;;;;;1.88;90.01;97819.14;1745518;82;21572;-63
2021/03/12 12:04:21;;;;;;;46.10;31.00;;;;;;;1.90;90.51;97817.69;1720508;82;21215;-65
2021/03/12 12:06:52;;;;;;;44.48;28.77;;;;;;;1.88;90.58;97813.14;1724166;83;21155;-66
2021/03/12 12:09:25;;;;;;;43.40;28.13;;;;;;;1.87;91.31;97812.34;1724343;83;21151;-64
2021/03/12 12:11:55;;;;;;;44.17;30.60;;;;;;;1.90;91.53;97796.89;1724229;82;21199;-67
2021/03/12 12:14:24;;;;;;;41.50;27.47;;;;;;;1.93;91.54;97797.82;1723328;83;21146;-65
2021/03/12 12:16:56;;;;;;;43.10;30.23;;;;;;;1.97;91.71;97797.30;1722263;83;21180;-64
2021/03/12 12:19:25;;;;;;;47.10;30.90;;;;;;;1.98;91.76;97801.50;1720208;82;21126;-62
2021/03/12 12:21:54;;;;;;;46.27;30.97;;;;;;;2.01;91.76;97800.35;1718035;82;21189;-65
2021/03/12 12:24:24;;;;;;;46.83;31.00;;;;;;;2.06;91.95;97793.61;1714581;83;21178;-62
2021/03/12 12:26:54;;;;;;;44.40;30.50;;;;;;;2.10;91.74;97792.77;1714402;83;21213;-69
2021/03/12 12:29:23;;;;;;;49.77;34.60;;;;;;;2.06;91.20;97788.41;1714516;84;21178;-67
2021/03/12 12:31:52;;;;;;;54.37;39.93;;;;;;;2.05;91.74;97791.19;1714790;82;21201;-61
2021/03/12 12:34:22;;;;;;;50.00;34.83;;;;;;;2.08;91.95;97790.84;1715070;82;21162;-62
2021/03/12 12:36:53;;;;;;;49.40;34.57;;;;;;;2.10;91.94;97787.56;1716819;83;21201;-61
2021/03/12 12:39:23;;;;;;;47.90;33.70;;;;;;;2.12;91.87;97787.72;1721047;82;21129;-62
2021/03/12 12:41:52;;;;;;;58.63;40.80;;;;;;;2.10;91.10;97780.56;1724003;83;21355;-61
2021/03/12 12:44:23;;;;;;;45.47;31.17;;;;;;;2.11;91.61;97783.48;1724324;82;21181;-65
2021/03/12 12:46:52;;;;;;;49.47;34.57;;;;;;;2.17;91.69;97785.05;1714238;82;21222;-63
2021/03/12 12:49:22;;;;;;;50.23;35.90;;;;;;;2.17;91.37;97786.34;1723520;82;21209;-64
2021/03/12 12:51:52;;;;;;;46.73;31.73;;;;;;;2.18;91.64;97786.66;1722227;82;21137;-61
2021/03/12 12:54:21;;;;;;;51.30;35.70;;;;;;;2.17;91.00;97787.64;1715903;82;21186;-65
2021/03/12 12:56:51;;;;;;;46.87;33.73;;;;;;;2.10;91.66;97793.56;1709790;82;21173;-64
2021/03/12 12:59:24;;;;;;;48.07;34.87;;;;;;;2.11;91.63;97795.67;1716336;82;21193;-59
2021/03/12 13:01:55;;;;;;;44.08;32.48;;;;;;;2.13;91.86;97791.12;1718875;82;22486;-67
2021/03/12 13:04:27;;;;;;;41.40;31.15;;;;;;;2.16;91.98;97794.64;1717579;82;21604;-62
2021/03/12 13:06:59;;;;;;;38.57;27.37;;;;;;;2.21;92.06;97792.81;1721863;83;21553;-61
2021/03/12 13:09:28;;;;;;;45.40;31.23;;;;;;;2.24;92.20;97797.17;1721860;83;21343;-66
2021/03/12 13:11:57;;;;;;;44.43;31.27;;;;;;;2.28;92.29;97797.09;1722289;83;21173;-62
2021/03/12 13:14:28;;;;;;;42.95;29.37;;;;;;;2.28;92.07;97792.39;1716862;83;21144;-64
2021/03/12 13:16:59;;;;;;;41.40;28.57;;;;;;;2.24;91.98;97791.97;1716738;83;21203;-65
2021/03/12 13:19:29;;;;;;;37.60;26.00;;;;;;;2.21;91.95;97794.11;1716944;83;21196;-63
2021/03/12 13:22:00;;;;;;;39.57;25.73;;;;;;;2.18;92.56;97800.48;1716547;83;21613;-68
2021/03/12 13:24:30;;;;;;;38.23;26.90;;;;;;;2.18;92.87;97799.66;1717067;83;21618;-62
2021/03/12 13:26:59;;;;;;;41.10;27.47;;;;;;;2.17;93.17;97802.75;1716568;83;21173;-61
2021/03/12 13:29:29;;;;;;;38.87;25.63;;;;;;;2.21;93.46;97805.81;1721425;82;21262;-60
2021/03/12 13:31:58;;;;;;;40.00;27.67;;;;;;;2.20;93.10;97793.80;1721365;83;21191;-60
2021/03/12 13:34:28;;;;;;;45.17;31.50;;;;;;;2.18;93.05;97800.95;1720743;83;21278;-63
2021/03/12 13:36:58;;;;;;;44.40;31.20;;;;;;;2.18;93.43;97799.66;1720859;83;21168;-59
2021/03/12 13:39:27;;;;;;;44.73;30.17;;;;;;;2.16;93.22;97808.14;1721184;83;21148;-62
2021/03/12 13:42:00;;;;;;;38.53;26.70;;;;;;;2.16;93.96;97809.44;1720922;83;21286;-63
2021/03/12 13:44:27;;;;;;;41.63;28.90;;;;;;;2.11;93.52;97797.77;1721228;83;21152;-61
2021/03/12 13:46:57;;;;;;;44.87;30.00;;;;;;;2.10;93.79;97806.56;1720846;83;21273;-60
2021/03/12 13:49:26;;;;;;;43.97;29.27;;;;;;;2.10;94.27;97801.86;1721194;83;21171;-62
2021/03/12 13:51:57;;;;;;;42.00;27.73;;;;;;;2.08;94.32;97805.14;1721331;83;21100;-63
2021/03/12 13:54:27;;;;;;;43.30;29.50;;;;;;;2.06;94.22;97801.90;1720808;83;21282;-62
2021/03/12 13:56:56;;;;;;;46.67;32.53;;;;;;;2.06;94.70;97803.20;1721133;83;21144;-61
2021/03/12 13:59:26;;;;;;;44.17;31.83;;;;;;;2.05;94.99;97802.39;1720918;83;21148;-61
